Chronos : GP d'Australie 2012

Ils méprisent les légendes, ne se déterminent que face aux faits et au jugement de la piste, leurs arguments font l'économie du sentiment et leur grammaire se nomme triangulation. Ils n'aspirent pas à convaincre, intimement certains de ne pas défendre une opinion mais d'énoncer la Vérité. Ce lieu est leur sanctuaire, le dernier conservatoire de leurs Prophéties.

Modérateurs: sheon, Nicklaus

Chronos : GP d'Australie 2012

Messagede Hugues le 16 Mar 2012, 04:09

La hiérarchie et les meilleurs partiels de chacun des pilotes lors de la 1ère séance d'essais libres :
Code: Tout sélectionner
P     Pilote         Temps     Ecart Sec 1 Sec 2 Sec 3  Idéal   Tours           
01  3 J. BUTTON      1:27.560         29.1  23.2  34.9  1:27.35    11             
02  4 L. HAMILTON    1:27.805  0.245  29.1  23.2  35.0  1:27.45    14             
03  7 M. SCHUMACHER  1:28.235  0.675  29.5  23.6  35.0  1:28.25    17             
04  5 F. ALONSO      1:28.360  0.800  29.6  23.5  35.1  1:28.35    21             
05  2 M. WEBBER      1:28.467  0.907  29.6  23.5  35.1  1:28.35    21             
06  8 N. ROSBERG     1:28.683  1.123  29.5  23.2  35.8  1:28.65    22             
07 16 D. RICCIARDO   1:28.908  1.348  29.6  23.6  35.3  1:28.65    23             
08 18 P. MALDONADO   1:29.415  1.855  29.8  23.8  35.6  1:29.35    16             
09  9 K. RAIKKONEN   1:29.565  2.005  29.7  23.9  35.8  1:29.55     8             
10 14 K. KOBAYASHI   1:29.722  2.162  30.4  23.8  35.4  1:29.75    26             
11  1 S. VETTEL      1:29.790  2.230  29.7  23.7  36.0  1:29.55    21             
12 12 N. HULKENBERG  1:29.865  2.305  29.9  23.9  35.9  1:29.85    17             
13 11 P. DI RESTA    1:29.881  2.321  30.0  23.8  35.7  1:29.65    18             
14 19 B. SENNA       1:29.953  2.393  30.1  23.8  35.8  1:29.85    21             
15 15 S. PEREZ       1:30.124  2.564  29.9  23.9  36.0  1:29.95    22             
16 10 R. GROSJEAN    1:30.515  2.955  30.0  23.9  36.5  1:30.55    16             
17 20 H. KOVALAINEN  1:30.586  3.026  30.3  23.9  36.2  1:30.55    16             
18  6 F. MASSA       1:30.743  3.183  30.1  24.0  36.0  1:30.25    11             
19 17 J. VERGNE      1:31.178  3.618  30.4  24.1  36.3  1:30.95    17             
20 21 V. PETROV      1:31.983  4.423  30.7  24.4  36.7  1:31.95     8             
21 24 T. GLOCK       1:34.730  7.170  31.7  25.0  37.8  1:34.65     8             
22 25 C. PIC         1:40.256 12.696  33.6  26.4  39.8  1:39.95    11             
23 23 N. KARTHIKEYAN                  36.7  28.5  43.6  1:48.95     3             
24 22 P. DE LA ROSA




Les vitesses de pointe :
Code: Tout sélectionner
Vmax         
RAI  313     
MSC  312     
GRO  312     
RIC  312     
ROS  312     
BUT  311


A retenir:
- Piste humide en début de séance, s'asséchant dans la dernière demi-heure, où une deuxième moitié du plateau qui n'était pas encore entrée en piste a enfin fait l'effort
- Sortie de piste au premier virage de Felipe Massa
- Panne pour Narain Karthikeyan
- Lewis Hamilton pouvait sans doute s'approprier le meilleur temps sans un peu de trafic


Hugues
Hugues
 

Re: Chronos : GP d'Australie 2012

Messagede Hugues le 16 Mar 2012, 04:10

Pas de chronologie chronométrique pour le moment, F1.com connaissant quelques soucis.

Hugues
Hugues
 

Re: Chronos : GP d'Australie 2012

Messagede Hugues le 16 Mar 2012, 08:10

La hiérarchie et les meilleurs partiels de chacun des pilotes lors de la 2ème séance d'essais libres :
Code: Tout sélectionner
P     Pilote         Temps     Ecart Sec 1 Sec 2 Sec 3  Idéal   Tours           
01  7 M. SCHUMACHER  1:29.183         30.3  23.3  35.2  1:28.95    16             
02 12 N. HULKENBERG  1:29.292  0.109  30.3  23.5  35.2  1:29.15    19             
03 15 S. PEREZ       1:30.199  1.016  30.4  23.8  35.6  1:29.95    23             
04  5 F. ALONSO      1:30.341  1.158  30.5  23.5  35.8  1:29.95    13             
05 14 K. KOBAYASHI   1:30.709  1.526  30.7  23.9  35.6  1:30.35    14             
06 11 P. DI RESTA    1:31.466  2.283  31.0  23.8  35.8  1:30.75    13             
07  6 F. MASSA       1:31.505  2.322  30.8  24.1  36.3  1:31.35    14             
08 20 H. KOVALAINEN  1:31.932  2.749  30.7  23.8  36.6  1:31.25    16             
09  8 N. ROSBERG     1:32.184  3.001  31.2  24.1  36.6  1:32.05    17             
10  1 S. VETTEL      1:32.194  3.011  31.0  24.4  36.6  1:32.15    19             
11  2 M. WEBBER      1:32.296  3.113  31.1  24.4  36.6  1:32.25    20             
12 24 T. GLOCK       1:32.632  3.449  31.4  24.2  36.9  1:32.65    17             
13 21 V. PETROV      1:32.767  3.584  31.2  23.9  37.0  1:32.25    15             
14 10 R. GROSJEAN    1:32.822  3.639  31.3  24.5  36.7  1:32.65    11             
15  3 J. BUTTON      1:33.039  3.856  31.5  24.4  36.9  1:32.95    18             
16  4 L. HAMILTON    1:33.252  4.069  31.4  24.6  37.1  1:33.25    11             
17 18 P. MALDONADO   1:34.108  4.925  31.4  24.7  37.4  1:33.65    21             
18  9 K. RAIKKONEN   1:34.275  5.092  31.6  24.8  37.3  1:33.85     7             
19 19 B. SENNA       1:34.312  5.129  31.6  24.7  37.4  1:33.85    17             
20 17 J. VERGNE      1:34.485  5.302  31.8  24.8  37.7  1:34.45    29             
21 16 D. RICCIARDO   1:34.604  5.421  31.9  24.9  37.6  1:34.55    31             
22 25 C. PIC         1:34.770  5.587  32.1  25.0  37.6  1:34.85    13             
23 23 N. KARTHIKEYAN 1:42.627 13.444  34.0  26.9  39.9  1:40.95    16             
24 22 P. DE LA ROSA                   53.5  35.5                    1             
   LIMITE DES 107% :  1:35.425




Les vitesses de pointe :
Code: Tout sélectionner
Vmax         
GRO  314     
MSC  311     
PER  311     
KOB  311     
ROS  308     
DIR  308


A retenir:
- Piste humide, s'asséchant, malgré le passage de plusieurs averses.


Hugues
Hugues
 

Re: Chronos : GP d'Australie 2012

Messagede Hugues le 16 Mar 2012, 08:12

La chronologie chronométrique des améliorations de chacun des pilotes lors de la 2ème séance d'essais libres:

Code: Tout sélectionner
[16:39:13] J. VERGNE      1:52.220 (1)
[16:41:03] J. VERGNE      1:50.175 (1)
[16:41:10] D. RICCIARDO   1:51.424 (2)
[16:42:52] J. VERGNE      1:50.081 (1)
[16:42:58] D. RICCIARDO   1:48.874 (1)
[16:44:42] J. VERGNE      1:49.557 (2)
[16:44:47] D. RICCIARDO   1:48.581 (1)
[16:45:35] N. KARTHIKEYAN 1:58.866 (3)
[16:46:30] J. VERGNE      1:48.035 (1)
[16:46:35] D. RICCIARDO   1:47.478 (1)
[16:47:30] N. KARTHIKEYAN 1:55.886 (3)
[16:48:17] J. VERGNE      1:47.166 (1)
[16:48:23] D. RICCIARDO   1:47.286 (2)
[16:48:52] P. MALDONADO   1:50.661 (3)
[16:50:21] N. HULKENBERG  1:48.870 (3)
[16:50:48] K. KOBAYASHI   1:47.170 (2)
[16:52:11] N. HULKENBERG  1:48.218 (4)
[16:53:25] S. PEREZ       1:49.144 (5)
[16:53:57] N. HULKENBERG  1:46.779 (1)
[16:54:30] K. KOBAYASHI   1:46.098 (1)
[16:56:44] J. BUTTON      1:47.246 (4)
[16:57:03] S. PEREZ       1:47.228 (4)
[16:58:06] K. KOBAYASHI   1:45.117 (1)
[17:00:34] F. ALONSO      1:44.912 (1)
[17:02:17] F. ALONSO      1:42.171 (1)
[17:05:32] F. MASSA       1:41.976 (1)
[17:06:51] P. DI RESTA    1:43.710 (3)
[17:07:00] M. WEBBER      1:45.048 (4)
[17:07:13] F. MASSA       1:41.749 (1)
[17:08:29] N. KARTHIKEYAN 1:51.234 (12)
[17:08:34] P. DI RESTA    1:42.199 (3)
[17:08:42] M. WEBBER      1:42.281 (4)
[17:08:57] D. RICCIARDO   1:45.742 (6)
[17:09:36] P. MALDONADO   1:40.721 (1)
[17:10:39] D. RICCIARDO   1:42.248 (5)
[17:10:53] J. BUTTON      1:39.497 (1)
[17:11:11] J. VERGNE      1:42.178 (5)
[17:11:16] P. MALDONADO   1:39.586 (2)
[17:12:16] M. WEBBER      1:41.131 (3)
[17:12:21] D. RICCIARDO   1:41.492 (4)
[17:12:31] J. BUTTON      1:37.989 (1)
[17:12:37] N. HULKENBERG  1:42.066 (6)
[17:12:52] J. VERGNE      1:40.242 (3)
[17:13:31] S. VETTEL      1:40.548 (4)
[17:14:02] D. RICCIARDO   1:40.592 (5)
[17:14:16] N. ROSBERG     1:43.843 (11)
[17:14:18] T. GLOCK       1:43.246 (11)
[17:14:41] P. MALDONADO   1:37.721 (1)
[17:15:03] S. PEREZ       1:44.458 (13)
[17:15:10] S. VETTEL      1:38.946 (3)
[17:15:37] M. SCHUMACHER  1:37.649 (1)
[17:15:47] M. WEBBER      1:39.526 (5)
[17:15:58] N. ROSBERG     1:41.291 (8)
[17:16:00] T. GLOCK       1:42.248 (13)
[17:16:04] N. HULKENBERG  1:39.880 (6)
[17:16:16] J. VERGNE      1:39.782 (6)
[17:16:30] H. KOVALAINEN  1:41.084 (9)
[17:16:44] S. PEREZ       1:39.977 (8)
[17:16:49] S. VETTEL      1:38.804 (4)
[17:17:22] D. RICCIARDO   1:39.414 (5)
[17:17:40] C. PIC         1:46.550 (17)
[17:19:35] J. VERGNE      1:38.994 (5)
[17:19:59] H. KOVALAINEN  1:40.508 (10)
[17:20:08] S. PEREZ       1:38.515 (4)
[17:20:17] S. VETTEL      1:37.971 (3)
[17:21:02] N. ROSBERG     1:39.863 (9)
[17:21:07] V. PETROV      1:39.958 (11)
[17:21:17] C. PIC         1:43.927 (17)
[17:21:49] T. GLOCK       1:41.389 (13)
[17:22:21] D. RICCIARDO   1:39.124 (7)
[17:23:41] S. PEREZ       1:37.189 (1)
[17:23:59] D. RICCIARDO   1:38.914 (6)
[17:39:23] N. KARTHIKEYAN 1:48.730 (19)
[17:41:09] N. KARTHIKEYAN 1:45.645 (19)
[17:42:51] N. KARTHIKEYAN 1:42.627 (17)
[17:46:37] S. VETTEL      1:36.975 (1)
[17:47:05] R. GROSJEAN    1:36.190 (1)
[17:47:20] L. HAMILTON    1:38.217 (7)
[17:47:47] M. WEBBER      1:36.770 (2)
[17:47:48] T. GLOCK       1:36.801 (3)
[17:47:52] J. BUTTON      1:37.522 (6)
[17:48:01] J. VERGNE      1:38.016 (9)
[17:48:12] S. VETTEL      1:34.545 (1)
[17:48:34] B. SENNA       1:38.326 (11)
[17:48:35] F. MASSA       1:34.001 (1)
[17:48:40] R. GROSJEAN    1:35.245 (3)
[17:48:56] L. HAMILTON    1:36.638 (4)
[17:49:00] V. PETROV      1:39.066 (14)
[17:49:14] P. DI RESTA    1:32.302 (1)
[17:49:18] H. KOVALAINEN  1:33.347 (2)
[17:49:23] M. WEBBER      1:34.613 (5)
[17:49:24] T. GLOCK       1:35.477 (7)
[17:49:27] J. BUTTON      1:35.382 (7)
[17:49:38] J. VERGNE      1:37.306 (11)
[17:49:46] P. MALDONADO   1:35.905 (9)
[17:49:55] N. HULKENBERG  1:34.015 (4)
[17:50:08] F. MASSA       1:32.952 (2)
[17:50:11] B. SENNA       1:37.954 (15)
[17:50:15] R. GROSJEAN    1:34.440 (5)
[17:50:17] N. ROSBERG     1:35.103 (8)
[17:50:31] L. HAMILTON    1:34.969 (8)
[17:50:35] K. RAIKKONEN   1:39.638 (19)
[17:50:42] C. PIC         1:40.645 (20)
[17:50:46] P. DI RESTA    1:31.639 (1)
[17:50:56] M. WEBBER      1:33.470 (4)
[17:51:01] J. BUTTON      1:34.465 (7)
[17:51:15] J. VERGNE      1:36.161 (13)
[17:51:22] P. MALDONADO   1:35.829 (12)
[17:51:40] F. MASSA       1:31.923 (2)
[17:51:47] B. SENNA       1:35.429 (11)
[17:51:51] N. ROSBERG     1:34.222 (6)
[17:52:04] L. HAMILTON    1:33.930 (5)
[17:52:09] K. RAIKKONEN   1:35.459 (12)
[17:52:17] M. SCHUMACHER  1:35.198 (11)
[17:52:21] C. PIC         1:37.594 (18)
[17:52:36] J. BUTTON      1:33.971 (6)
[17:52:50] J. VERGNE      1:35.673 (15)
[17:52:57] P. MALDONADO   1:34.965 (11)
[17:53:00] S. VETTEL      1:33.140 (3)
[17:53:09] D. RICCIARDO   1:37.508 (18)
[17:53:22] B. SENNA       1:34.891 (11)
[17:53:23] R. GROSJEAN    1:33.828 (6)
[17:53:39] L. HAMILTON    1:33.713 (6)
[17:53:44] S. PEREZ       1:32.060 (3)
[17:53:48] M. SCHUMACHER  1:30.643 (1)
[17:53:58] F. ALONSO      1:36.203 (18)
[17:54:02] H. KOVALAINEN  1:32.182 (5)
[17:54:09] M. WEBBER      1:33.196 (7)
[17:54:25] J. VERGNE      1:35.111 (15)
[17:54:31] P. MALDONADO   1:34.108 (12)
[17:54:33] S. VETTEL      1:32.762 (6)
[17:54:35] N. HULKENBERG  1:29.808 (1)
[17:54:44] D. RICCIARDO   1:35.427 (16)
[17:54:57] R. GROSJEAN    1:33.774 (10)
[17:55:00] N. ROSBERG     1:32.394 (7)
[17:55:13] L. HAMILTON    1:33.520 (10)
[17:55:14] S. PEREZ       1:30.250 (2)
[17:55:27] F. ALONSO      1:30.341 (3)
[17:55:32] V. PETROV      1:32.767 (10)
[17:55:34] H. KOVALAINEN  1:31.932 (7)
[17:55:42] M. WEBBER      1:33.014 (11)
[17:55:47] J. BUTTON      1:33.478 (12)
[17:56:01] J. VERGNE      1:35.065 (17)
[17:56:06] S. VETTEL      1:32.582 (9)
[17:56:30] R. GROSJEAN    1:33.466 (12)
[17:56:50] M. SCHUMACHER  1:29.819 (2)
[17:56:59] K. RAIKKONEN   1:34.275 (16)
[17:57:03] K. KOBAYASHI   1:37.078 (21)
[17:57:11] F. MASSA       1:31.505 (5)
[17:57:14] M. WEBBER      1:32.296 (8)
[17:57:20] J. BUTTON      1:33.039 (12)
[17:57:35] J. VERGNE      1:34.485 (17)
[17:57:38] S. VETTEL      1:32.194 (8)
[17:57:56] D. RICCIARDO   1:34.988 (19)
[17:58:04] R. GROSJEAN    1:32.822 (12)
[17:58:12] B. SENNA       1:34.583 (18)
[17:58:19] L. HAMILTON    1:33.252 (14)
[17:58:33] K. KOBAYASHI   1:30.709 (5)
[17:59:14] N. HULKENBERG  1:29.292 (1)
[17:59:38] P. DI RESTA    1:31.466 (6)
[17:59:42] N. ROSBERG     1:32.184 (9)
[17:59:44] T. GLOCK       1:33.109 (15)
[17:59:54] M. SCHUMACHER  1:29.662 (2)
[17:59:59] S. PEREZ       1:30.199 (3)
[18:00:36] C. PIC         1:34.770 (21)
[18:01:06] D. RICCIARDO   1:34.604 (21)
[18:01:17] T. GLOCK       1:32.632 (12)
[18:01:22] B. SENNA       1:34.312 (19)
[18:01:23] M. SCHUMACHER  1:29.183 (1)


Hugues
Hugues
 

Re: Chronos : GP d'Australie 2012

Messagede Hugues le 17 Mar 2012, 05:08

La hiérarchie et les meilleurs partiels de chacun des pilotes lors de la 3ème séance d'essais libres :
Code: Tout sélectionner
P     Pilote         Temps     Ecart Sec 1 Sec 2 Sec 3  Idéal   Tours           
01  4 L. HAMILTON    1:25.681         28.6  22.7  34.1  1:25.55    18             
02 10 R. GROSJEAN    1:25.758  0.077  28.6  22.9  34.1  1:25.75    21             
03  2 M. WEBBER      1:25.900  0.219  28.6  22.7  34.2  1:25.65    20             
04  3 J. BUTTON      1:25.906  0.225  28.7  22.8  34.2  1:25.85    17             
05  8 N. ROSBERG     1:25.929  0.248  28.7  22.7  34.3  1:25.85    23             
06  7 M. SCHUMACHER  1:26.078  0.397  28.7  22.7  34.5  1:26.05    14             
07  1 S. VETTEL      1:26.211  0.530  28.7  22.8  34.4  1:26.05    12             
08 18 P. MALDONADO   1:26.470  0.789  28.7  23.1  34.4  1:26.35    17             
09 15 S. PEREZ       1:26.632  0.951  28.7  23.0  34.4  1:26.25    20             
10 16 D. RICCIARDO   1:26.723  1.042  29.0  23.0  34.6  1:26.75    17             
11 17 J. VERGNE      1:26.733  1.052  29.0  23.0  34.5  1:26.65    15             
12  9 K. RAIKKONEN   1:26.737  1.056  28.8  23.0  34.7  1:26.65    19             
13 14 K. KOBAYASHI   1:26.755  1.074  28.9  23.0  34.6  1:26.65    21             
14 12 N. HULKENBERG  1:27.029  1.348  29.2  23.0  34.7  1:27.05    23             
15 19 B. SENNA       1:27.119  1.438  29.0  23.2  34.7  1:27.05    20             
16  5 F. ALONSO      1:27.323  1.642  29.0  23.0  34.6  1:26.75    19             
17 11 P. DI RESTA    1:27.428  1.747  29.2  23.2  34.8  1:27.35    22             
18  6 F. MASSA       1:28.023  2.342  29.2  23.3  35.2  1:27.85    19             
19 20 H. KOVALAINEN  1:28.341  2.660  29.5  23.1  35.5  1:28.25    19             
20 21 V. PETROV      1:28.702  3.021  29.6  23.5  35.5  1:28.75    11             
21 24 T. GLOCK       1:30.728  5.047  30.3  24.0  36.3  1:30.75    13             
22 25 C. PIC         1:31.225  5.544  30.6  24.1  36.4  1:31.25    14             
23 22 P. DE LA ROSA  1:33.114  7.433  31.2  24.6  37.1  1:33.05    12             
24 23 N. KARTHIKEYAN 1:33.261  7.580  31.0  24.7  37.4  1:33.25    13             
   LIMITE DES 107% :  1:31.678




Les vitesses de pointe :
Code: Tout sélectionner
Vmax         
PER  317     
HAM  314     
ROS  313     
KOB  313     
MSC  312     
BUT  310


A retenir:
- Fin de séance compromise pour Vettel (20 à 25 minutes manquées) et Schumacher (5 minutes), Vettel n'ayant pas chaussé les pneus tendres et n'ayant pas d'expérience, même en essais privés (à vérifier) sur les spécifications tendres


Hugues
Hugues
 

Re: Chronos : GP d'Australie 2012

Messagede Hugues le 17 Mar 2012, 05:11

La chronologie chronométrique des améliorations de chacun des pilotes lors de la 3ème séance d'essais libres:

Code: Tout sélectionner
[14:05:42] N. ROSBERG     1:29.788 (1)
[14:08:01] N. ROSBERG     1:26.982 (1)
[14:13:51] P. DI RESTA    1:34.452 (2)
[14:13:51] S. PEREZ       1:33.310 (2)
[14:13:51] R. GROSJEAN    1:28.604 (2)
[14:14:52] N. HULKENBERG  1:35.458 (5)
[14:15:10] P. DI RESTA    1:33.558 (4)
[14:15:12] S. PEREZ       1:32.784 (3)
[14:15:16] R. GROSJEAN    1:27.789 (2)
[14:15:27] F. MASSA       1:29.381 (3)
[14:15:45] K. KOBAYASHI   1:27.914 (3)
[14:15:50] V. PETROV      1:33.151 (6)
[14:15:58] L. HAMILTON    1:31.161 (5)
[14:16:09] H. KOVALAINEN  1:30.792 (5)
[14:16:14] J. BUTTON      1:27.802 (3)
[14:16:31] N. HULKENBERG  1:34.571 (11)
[14:16:31] J. VERGNE      1:29.561 (6)
[14:16:44] J. VERGNE      1:29.561 (6)
[14:17:12] M. WEBBER      1:28.214 (5)
[14:17:32] V. PETROV      1:30.559 (8)
[14:17:32] L. HAMILTON    1:26.620 (1)
[14:17:32] D. RICCIARDO   1:29.034 (7)
[14:17:41] H. KOVALAINEN  1:30.185 (10)
[14:17:41] J. BUTTON      1:26.801 (2)
[14:17:51] C. PIC         1:33.400 (13)
[14:17:59] J. VERGNE      1:29.501 (9)
[14:17:59] N. HULKENBERG  1:33.769 (15)
[14:18:07] S. VETTEL      1:27.668 (4)
[14:18:09] M. SCHUMACHER  1:26.234 (1)
[14:18:17] P. DI RESTA    1:33.218 (15)
[14:18:36] F. ALONSO      1:28.146 (8)
[14:18:52] B. SENNA       1:30.854 (15)
[14:19:01] D. RICCIARDO   1:27.815 (7)
[14:19:27] J. VERGNE      1:28.182 (10)
[14:19:36] K. RAIKKONEN   1:31.374 (16)
[14:20:09] M. WEBBER      1:27.031 (5)
[14:20:21] K. KOBAYASHI   1:27.448 (6)
[14:20:31] N. KARTHIKEYAN 1:35.366 (21)
[14:20:57] J. VERGNE      1:27.645 (7)
[14:21:06] K. RAIKKONEN   1:31.004 (16)
[14:21:17] C. PIC         1:32.457 (17)
[14:21:28] S. PEREZ       1:32.032 (17)
[14:21:35] M. WEBBER      1:26.996 (5)
[14:21:53] B. SENNA       1:28.523 (12)
[14:22:01] V. PETROV      1:29.697 (14)
[14:22:36] K. RAIKKONEN   1:29.245 (13)
[14:22:55] N. HULKENBERG  1:33.719 (20)
[14:22:55] N. ROSBERG     1:25.929 (1)
[14:23:00] P. DI RESTA    1:33.196 (19)
[14:23:37] F. ALONSO      1:27.985 (11)
[14:23:37] K. KOBAYASHI   1:27.138 (6)
[14:23:37] B. SENNA       1:27.976 (11)
[14:24:08] S. VETTEL      1:26.735 (4)
[14:24:19] T. GLOCK       1:32.508 (19)
[14:24:37] S. PEREZ       1:32.016 (17)
[14:24:37] M. WEBBER      1:26.926 (6)
[14:25:19] P. DE LA ROSA  1:37.053 (23)
[14:25:19] P. MALDONADO   1:29.076 (13)
[14:28:36] P. MALDONADO   1:28.359 (13)
[14:29:04] T. GLOCK       1:32.032 (19)
[14:34:28] M. SCHUMACHER  1:26.078 (2)
[14:35:30] K. KOBAYASHI   1:26.810 (6)
[14:35:50] R. GROSJEAN    1:26.831 (7)
[14:36:14] K. RAIKKONEN   1:27.248 (9)
[14:36:44] H. KOVALAINEN  1:28.833 (15)
[14:36:44] H. KOVALAINEN  1:30.185 (17)
[14:36:56] L. HAMILTON    1:26.391 (3)
[14:37:27] V. PETROV      1:28.702 (15)
[14:37:38] D. RICCIARDO   1:27.208 (9)
[14:38:21] B. SENNA       1:27.375 (11)
[14:38:21] J. VERGNE      1:27.375 (12)
[14:38:21] N. HULKENBERG  1:27.905 (13)
[14:38:21] P. MALDONADO   1:28.206 (15)
[14:38:28] K. KOBAYASHI   1:26.755 (5)
[14:39:28] C. PIC         1:32.337 (21)
[14:39:28] P. DI RESTA    1:28.143 (15)
[14:40:10] M. WEBBER      1:26.553 (4)
[14:41:41] P. MALDONADO   1:27.783 (13)
[14:41:42] F. ALONSO      1:27.693 (13)
[14:41:54] S. PEREZ       1:26.632 (5)
[14:42:09] S. PEREZ       1:32.016 (20)
[14:42:51] N. KARTHIKEYAN 1:34.485 (23)
[14:45:18] T. GLOCK       1:31.592 (21)
[14:45:18] S. VETTEL      1:26.211 (3)
[14:45:18] P. MALDONADO   1:27.187 (10)
[14:45:18] P. DE LA ROSA  1:35.784 (24)
[14:49:04] P. DE LA ROSA  1:35.430 (24)
[14:51:02] F. MASSA       1:28.131 (17)
[14:52:49] P. DI RESTA    1:27.428 (15)
[14:52:49] J. VERGNE      1:26.733 (7)
[14:52:49] R. GROSJEAN    1:25.758 (1)
[14:52:49] L. HAMILTON    1:26.391 (4)
[14:53:17] L. HAMILTON    1:25.836 (2)
[14:54:57] N. HULKENBERG  1:27.220 (13)
[14:54:57] J. BUTTON      1:25.906 (3)
[14:54:57] D. RICCIARDO   1:26.723 (9)
[14:55:02] M. WEBBER      1:25.900 (3)
[14:58:47] F. MASSA       1:28.023 (18)
[14:58:47] H. KOVALAINEN  1:28.341 (19)
[14:59:14] K. RAIKKONEN   1:26.737 (11)
[14:59:14] N. KARTHIKEYAN 1:33.261 (23)
[14:59:14] F. ALONSO      1:27.323 (15)
[14:59:14] L. HAMILTON    1:25.681 (1)
[14:59:16] P. MALDONADO   1:26.470 (8)
[14:59:41] P. MALDONADO   1:26.470 (8)
[15:01:02] C. PIC         1:31.225 (21)
[15:01:02] T. GLOCK       1:30.728 (21)
[15:01:19] N. HULKENBERG  1:27.029 (14)
[15:01:19] P. DE LA ROSA  1:33.114 (23)
[15:01:34] B. SENNA       1:27.119 (15)


Les indications horaires peuvent être erronées de quelques secondes.

Hugues
Hugues
 

Re: Chronos : GP d'Australie 2012

Messagede Hugues le 17 Mar 2012, 07:24

La hiérarchie et les meilleurs partiels de chacun des pilotes à l'issue de la 1ère période de qualification :
Code: Tout sélectionner
P     Pilote         Période 1 Période 2 Période 3 Sec 1 Sec 2 Sec 3  Idéal   
01 14 K. KOBAYASHI    1:26.182                      28.6  22.8  34.6  1:26.15  7 
02 17 J. VERGNE       1:26.493                      28.9  23.0  34.5  1:26.55  8 
03 10 R. GROSJEAN     1:26.498                      28.8  23.0  34.5  1:26.45  9 
04  7 M. SCHUMACHER   1:26.586                      28.8  22.9  34.7  1:26.55  7 
05 15 S. PEREZ        1:26.596                      28.8  23.1  34.6  1:26.65  8 
06  5 F. ALONSO       1:26.688                      28.9  22.8  34.8  1:26.65  9 
07  8 N. ROSBERG      1:26.763                      29.0  22.8  34.9  1:26.85  5 
08  1 S. VETTEL       1:26.773                      29.0  22.9  34.7  1:26.75  9 
09  4 L. HAMILTON     1:26.800                      29.0  22.9  34.7  1:26.75  6 
10 18 P. MALDONADO    1:26.803                      28.8  23.0  34.5  1:26.45 11 
11  3 J. BUTTON       1:26.832                      29.0  23.0  34.7  1:26.85  6 
12 19 B. SENNA        1:27.004                      28.9  23.2  34.8  1:27.05 10 
13 16 D. RICCIARDO    1:27.024                      29.1  23.2  34.6  1:27.05  8 
14  2 M. WEBBER       1:27.117                      29.2  22.8  34.9  1:27.05  7 
15 12 N. HULKENBERG   1:27.464                      29.4  23.0  34.8  1:27.35  9 
16 11 P. DI RESTA     1:27.469                      29.4  23.1  34.8  1:27.45 10 
17  6 F. MASSA        1:27.633                      29.1  23.2  35.2  1:27.65  8 
18  9 K. RAIKKONEN    1:27.758                      29.0  23.0  35.0  1:27.15  9 
19 20 H. KOVALAINEN   1:28.679                      29.5  23.3  35.5  1:28.45  7 
20 21 V. PETROV       1:29.018                      29.7  23.4  35.7  1:28.95  8 
21 24 T. GLOCK        1:30.923                      30.4  23.8  36.3  1:30.65 10 
22 25 C. PIC          1:31.670                      30.5  24.2  36.8  1:31.65  9 
   22 P. DE LA ROSA   1:33.495                      31.1  24.7  37.3  1:33.25  6 
   23 N. KARTHIKEYAN  1:33.643                      31.0  24.6  37.9  1:33.65  6 
   LIMITE DES 107% :  1:32.214




Les vitesses de pointe à l'issue de la 1ère période de qualification :
Code: Tout sélectionner
Vmax         
PER  316     
HAM  314     
MSC  313     
KOB  312     
ROS  312     
BUT  310


Hugues
Hugues
 

Re: Chronos : GP d'Australie 2012

Messagede Hugues le 17 Mar 2012, 07:26

La chronologie chronométrique des améliorations de chacun des pilotes lors de la 1ère période de qualifications :
Code: Tout sélectionner
[17:04:04] T. GLOCK       1:32.997 (1)
[17:04:13] C. PIC         1:32.349 (1)
[17:05:32] B. SENNA       1:33.635 (3)
[17:05:57] P. MALDONADO   1:28.370 (1)
[17:06:05] P. DI RESTA    1:28.617 (2)
[17:06:24] N. HULKENBERG  1:31.345 (3)
[17:06:31] S. VETTEL      1:31.455 (4)
[17:06:35] D. RICCIARDO   1:28.673 (3)
[17:07:09] B. SENNA       1:28.223 (1)
[17:07:09] T. GLOCK       1:31.790 (7)
[17:07:12] K. RAIKKONEN   1:28.857 (5)
[17:07:19] J. VERGNE      1:29.073 (6)
[17:07:31] L. HAMILTON    1:35.959 ()
[17:07:45] R. GROSJEAN    1:31.331 (7)
[17:07:48] F. ALONSO      1:28.763 (5)
[17:07:48] S. PEREZ       1:28.626 (4)
[17:07:52] N. HULKENBERG  1:28.426 (3)
[17:07:58] S. VETTEL      1:27.369 (1)
[17:08:14] J. BUTTON      1:27.687 (2)
[17:08:23] M. WEBBER      1:28.365 (4)
[17:08:23] F. MASSA       1:30.953 (13)
[17:08:25] K. KOBAYASHI   1:27.048 (1)
[17:08:59] J. VERGNE      1:28.241 (5)
[17:09:02] L. HAMILTON    1:27.053 (2)
[17:09:02] P. MALDONADO   1:28.069 (5)
[17:09:02] N. ROSBERG     1:37.232 ()
[17:09:11] R. GROSJEAN    1:27.708 (5)
[17:09:12] P. DI RESTA    1:28.586 (11)
[17:09:38] N. KARTHIKEYAN 1:45.488 ()
[17:09:38] M. SCHUMACHER  1:32.244 (18)
[17:09:38] D. RICCIARDO   1:28.568 (11)
[17:09:40] J. BUTTON      1:26.986 (1)
[17:09:44] M. WEBBER      1:27.384 (5)
[17:09:52] F. MASSA       1:28.921 (16)
[17:09:58] B. SENNA       1:27.223 (4)
[17:10:12] H. KOVALAINEN  1:33.717 ()
[17:10:12] K. RAIKKONEN   1:27.758 (8)
[17:10:14] J. VERGNE      1:28.045 (9)
[17:10:28] V. PETROV      1:30.277 (17)
[17:10:28] P. MALDONADO   1:27.374 (6)
[17:10:44] N. ROSBERG     1:35.067 ()
[17:10:50] S. PEREZ       1:27.904 (10)
[17:10:52] F. ALONSO      1:27.670 (8)
[17:11:12] M. SCHUMACHER  1:27.055 (4)
[17:11:52] H. KOVALAINEN  1:28.804 (17)
[17:12:07] V. PETROV      1:29.018 (19)
[17:12:07] L. HAMILTON    1:26.800 (1)
[17:12:07] P. DI RESTA    1:28.586 (16)
[17:12:07] N. ROSBERG     1:26.763 (1)
[17:12:15] P. DE LA ROSA  1:33.796 ()
[17:12:43] F. ALONSO      1:27.249 (7)
[17:13:10] J. BUTTON      1:26.832 (3)
[17:15:51] P. DE LA ROSA  1:33.495 ()
[17:15:51] M. WEBBER      1:27.117 (6)
[17:17:50] C. PIC         1:31.670 (21)
[17:17:50] P. DI RESTA    1:27.650 (11)
[17:17:50] T. GLOCK       1:30.923 (21)
[17:17:50] R. GROSJEAN    1:27.202 (7)
[17:17:50] N. HULKENBERG  1:27.464 (12)
[17:18:00] B. SENNA       1:27.004 (4)
[17:18:03] S. VETTEL      1:26.773 (2)
[17:18:38] D. RICCIARDO   1:27.024 (6)
[17:18:38] P. MALDONADO   1:26.945 (5)
[17:19:04] S. PEREZ       1:26.596 (1)
[17:19:04] J. VERGNE      1:26.493 (1)
[17:19:21] L. HAMILTON    1:26.800 (5)
[17:19:26] S. VETTEL      1:26.773 (5)
[17:19:26] K. KOBAYASHI   1:26.182 (1)
[17:19:46] N. KARTHIKEYAN 1:33.643 ()
[17:19:46] F. MASSA       1:27.633 (16)
[17:19:59] F. ALONSO      1:26.688 (4)
[17:20:28] H. KOVALAINEN  1:28.679 (19)
[17:20:53] R. GROSJEAN    1:26.498 (3)
[17:20:53] P. DI RESTA    1:27.469 (16)
[17:21:25] M. SCHUMACHER  1:26.586 (4)
[17:21:27] P. MALDONADO   1:26.803 (10)


Hugues
Hugues
 

Re: Chronos : GP d'Australie 2012

Messagede Hugues le 17 Mar 2012, 07:49

La hiérarchie et les meilleurs partiels de chacun des pilotes à l'issue de la 2ème période de qualification :
Code: Tout sélectionner
P     Pilote         Période 1 Période 2 Période 3 Sec 1 Sec 2 Sec 3  Idéal   
01  8 N. ROSBERG      1:26.763  1:25.469            28.6  22.6  34.2  1:25.55 10 
02  7 M. SCHUMACHER   1:26.586  1:25.571            28.5  22.6  34.3  1:25.55 12 
03  4 L. HAMILTON     1:26.800  1:25.626            28.5  22.6  34.4  1:25.65  9 
04  3 J. BUTTON       1:26.832  1:25.663            28.6  22.8  34.1  1:25.65  9 
05 10 R. GROSJEAN     1:26.498  1:25.845            28.7  22.8  34.2  1:25.85 15 
06  1 S. VETTEL       1:26.773  1:25.982            28.7  22.7  34.4  1:25.95 12 
07 18 P. MALDONADO    1:26.803  1:26.206            28.4  23.1  34.6  1:26.25 17 
08  2 M. WEBBER       1:27.117  1:26.297            28.9  22.8  34.3  1:26.15 14 
09 12 N. HULKENBERG   1:27.464  1:26.314            28.9  22.8  34.5  1:26.35 15 
10 16 D. RICCIARDO    1:27.024  1:26.319            29.0  23.0  34.1  1:26.25 15 
11 17 J. VERGNE       1:26.493  1:26.429            28.9  23.0  34.4  1:26.45 12 
12  5 F. ALONSO       1:26.688  1:26.494            28.9  22.9  34.5  1:26.45 12 
13 14 K. KOBAYASHI    1:26.182  1:26.590            28.9  23.0  34.6  1:26.65 12 
14 19 B. SENNA        1:27.004  1:26.663            28.8  22.9  34.8  1:26.65 16 
15 11 P. DI RESTA     1:27.469  1:27.086            29.2  22.9  34.7  1:26.95 16 
16  6 F. MASSA        1:27.633  1:27.497            29.1  23.2  34.9  1:27.35 16 
17 15 S. PEREZ        1:26.596                      37.9  23.8  39.6  1:41.45 11 
18  9 K. RAIKKONEN    1:27.758                      29.0  23.0  35.0  1:27.15  9 
19 20 H. KOVALAINEN   1:28.679                      29.5  23.3  35.5  1:28.45  7 
20 21 V. PETROV       1:29.018                      29.7  23.4  35.7  1:28.95  8 
21 24 T. GLOCK        1:30.923                      30.4  23.8  36.3  1:30.65 10 
22 25 C. PIC          1:31.670                      30.5  24.2  36.8  1:31.65  9 
   22 P. DE LA ROSA   1:33.495                      31.1  24.7  37.3  1:33.25  6 
   23 N. KARTHIKEYAN  1:33.643                      31.0  24.6  37.9  1:33.65  6 
   LIMITE DES 107% :  1:32.214




Les vitesses de pointe à l'issue de la 2ème période de qualification :
Code: Tout sélectionner
Vmax         
PER  316     
HAM  314     
MSC  313     
ROS  313     
KOB  312     
BUT  310


Hugues
Hugues
 

Re: Chronos : GP d'Australie 2012

Messagede Hugues le 17 Mar 2012, 07:51

La chronologie chronométrique des améliorations de chacun des pilotes lors de la 2ème période de qualifications :
Code: Tout sélectionner
[17:28:00] [Feu vert]
[17:31:11] P. DI RESTA    1:27.304 (1)
[17:31:16] D. RICCIARDO   1:26.624 (1)
[17:31:22] N. HULKENBERG  1:27.397 (3)
[17:31:43] B. SENNA       1:32.365 (4)
[17:31:51] S. VETTEL      1:25.982 (1)
[17:32:21] F. ALONSO      1:26.494 (2)
[17:32:21] F. MASSA       1:27.603 (6)
[17:32:21] M. WEBBER      1:26.297 (2)
[17:32:21] P. MALDONADO   1:34.164 (9)
[17:32:55] P. MALDONADO   1:34.164 (9)
[17:32:55] L. HAMILTON    1:25.626 (1)
[17:33:22] J. BUTTON      1:25.663 (2)
[17:33:38] [Drapeau rouge]
[17:38:00] [Feu vert]
[17:41:29] F. MASSA       1:27.497 (9)
[17:41:37] N. ROSBERG     1:25.469 (1)
[17:41:53] M. SCHUMACHER  1:25.571 (2)
[17:42:48] F. ALONSO      1:26.494 (7)
[17:42:56] M. WEBBER      1:26.297 (7)
[17:42:56] R. GROSJEAN    1:25.973 (5)
[17:45:24] K. KOBAYASHI   1:31.639 (13)
[17:45:51] J. VERGNE      1:26.611 (9)
[17:45:51] B. SENNA       1:26.663 (11)
[17:45:53] D. RICCIARDO   1:26.319 (8)
[17:45:54] P. MALDONADO   1:26.206 (7)
[17:45:56] R. GROSJEAN    1:25.845 (5)
[17:46:00] [Drapeau à damiers]
[17:46:29] N. HULKENBERG  1:26.314 (9)
[17:46:49] J. VERGNE      1:26.663 (13)
[17:46:49] K. KOBAYASHI   1:26.590 (12)
[17:47:17] P. DI RESTA    1:27.086 (15)


Hugues
Hugues
 

Re: Chronos : GP d'Australie 2012

Messagede Hugues le 17 Mar 2012, 08:34

La hiérarchie et les meilleurs partiels de chacun des pilotes à l'issue de la 3ème période de qualification :
Code: Tout sélectionner
P     Pilote         Période 1 Période 2 Période 3 Sec 1 Sec 2 Sec 3  Idéal   
01  4 L. HAMILTON     1:26.800  1:25.626  1:24.922  28.3  22.6  33.9  1:24.95 14 
02  3 J. BUTTON       1:26.832  1:25.663  1:25.074  28.3  22.7  34.0  1:25.15 15 
03 10 R. GROSJEAN     1:26.498  1:25.845  1:25.302  28.6  22.7  33.9  1:25.35 21 
04  7 M. SCHUMACHER   1:26.586  1:25.571  1:25.336  28.4  22.6  34.1  1:25.25 18 
05  2 M. WEBBER       1:27.117  1:26.297  1:25.651  28.6  22.8  34.1  1:25.65 17 
06  1 S. VETTEL       1:26.773  1:25.982  1:25.668  28.5  22.6  34.2  1:25.45 18 
07  8 N. ROSBERG      1:26.763  1:25.469  1:25.686  28.6  22.6  34.1  1:25.45 16 
08 18 P. MALDONADO    1:26.803  1:26.206  1:25.908  28.5  23.1  34.2  1:25.95 20 
09 12 N. HULKENBERG   1:27.464  1:26.314  1:26.451  28.9  22.9  34.5  1:26.45 18 
10 16 D. RICCIARDO    1:27.024  1:26.319            44.8  30.1        1:26.25 16 
11 17 J. VERGNE       1:26.493  1:26.429            28.9  23.0  34.4  1:26.45 12 
12  5 F. ALONSO       1:26.688  1:26.494            28.9  22.9  34.5  1:26.45 12 
13 14 K. KOBAYASHI    1:26.182  1:26.590            28.9  23.0  34.6  1:26.15 12 
14 19 B. SENNA        1:27.004  1:26.663            28.8  22.9  34.8  1:27.05 16 
15 11 P. DI RESTA     1:27.469  1:27.086            29.2  22.9  34.7  1:26.95 16 
16  6 F. MASSA        1:27.633  1:27.497            29.1  23.2  34.9  1:27.35 16 
17 15 S. PEREZ        1:26.596                      37.9  23.8  39.6  1:41.45 11 
18  9 K. RAIKKONEN    1:27.758                      29.0  23.0  35.0  1:27.15  9 
19 20 H. KOVALAINEN   1:28.679                      29.5  23.3  35.5  1:28.45  7 
20 21 V. PETROV       1:29.018                      29.7  23.4  35.7  1:28.95  8 
21 24 T. GLOCK        1:30.923                      30.4  23.8  36.3  1:30.65 10 
22 25 C. PIC          1:31.670                      30.5  24.2  36.8  1:31.65  9 
   22 P. DE LA ROSA   1:33.495                      31.1  24.7  37.3  1:33.25  6 
   23 N. KARTHIKEYAN  1:33.643                      31.0  24.6  37.9  1:33.65  6 
   LIMITE DES 107% :  1:32.214




Les vitesses de pointe à l'issue de la 3ème période de qualification :
Code: Tout sélectionner
Vmax         
PER  316     
HAM  314     
MSC  313     
ROS  313     
KOB  312     
BUT  310


Hugues
Hugues
 

Re: Chronos : GP d'Australie 2012

Messagede Hugues le 17 Mar 2012, 08:36

La chronologie chronométrique des améliorations de chacun des pilotes lors de la 3ème période de qualifications :

Code: Tout sélectionner
[17:55:00] [Feu vert]
[17:59:05] N. ROSBERG     1:25.847 (1)
[17:59:19] L. HAMILTON    1:24.922 (1)
[17:59:25] J. BUTTON      1:25.740 (2)
[17:59:31] M. SCHUMACHER  1:25.716 (2)
[17:59:36] R. GROSJEAN    1:25.839 (4)
[17:59:50] S. VETTEL      1:25.668 (2)
[18:03:07] S. VETTEL      1:25.716 (3)
[18:03:07] M. WEBBER      1:25.651 (2)
[18:05:00] [Drapeau à damiers]
[18:05:40] N. HULKENBERG  1:26.451 (8)
[18:05:48] P. MALDONADO   1:25.908 (8)
[18:05:52] R. GROSJEAN    1:25.847 (7)
[18:05:52] N. ROSBERG     1:25.686 (4)
[18:05:55] M. WEBBER      1:25.668 (3)
[18:05:55] M. SCHUMACHER  1:25.336 (2)
[18:06:00] J. BUTTON      1:25.839 (7)
[18:06:00] R. GROSJEAN    1:25.302 (2)
[18:06:04] N. ROSBERG     1:25.740 (7)
[18:06:04] J. BUTTON      1:25.074 (2)


Hugues
Hugues
 

Re: Chronos : GP d'Australie 2012

Messagede Garion le 18 Mar 2012, 09:07

Désolé, j'ai lancé mon truc sans vérifier que ça marchait (c'était un peu tôt ce matin faut dire), et je n'ai pas gaffe que ça n'enregistrait rien.
J'ai réglé le problème pour que ça marche au prochain GP, mais en attendant pas de graphique pour ce GP :(.
Image
Image
Avatar de l'utilisateur
Garion
Prisonnier
 
Messages: 15425
Inscription: 19 Fév 2003, 09:15
Localisation: Le village

Re: Chronos : GP d'Australie 2012

Messagede Dr Renard le 18 Mar 2012, 10:01

Dommage.
Tu seras fouetté :D
Image
Avatar de l'utilisateur
Dr Renard
 
Messages: 5758
Inscription: 21 Fév 2003, 18:06
Localisation: Touraine

Re: Chronos : GP d'Australie 2012

Messagede Ouais_supère le 18 Mar 2012, 14:50

Étant abonné à Autosport, je peux faire passer les temps au tour à quelqu'un qui saura les poster correctement, peut-être?
Ouais_supère
 
Messages: 20919
Inscription: 20 Juil 2005, 10:54

Re: Chronos : GP d'Australie 2012

Messagede sheon le 19 Mar 2012, 10:52

Garion a écrit:Désolé, j'ai lancé mon truc sans vérifier que ça marchait (c'était un peu tôt ce matin faut dire), et je n'ai pas gaffe que ça n'enregistrait rien.
J'ai réglé le problème pour que ça marche au prochain GP, mais en attendant pas de graphique pour ce GP :(.

Dommage, j'ai regardé le GP en différé sans live timing, tes graphiques m'auraient été précieux :P (au passage, merci pour tous les graphiques dont tu nous abreuves d'habitude à chaque course !)
Donnez une Ferrari à Leclerc et on n'en parle plus.
Avatar de l'utilisateur
sheon
Léon Raoul
 
Messages: 18891
Inscription: 03 Juin 2010, 15:55
Localisation: Dans les nuages.

Re: Chronos : GP d'Australie 2012

Messagede Ouais_supère le 19 Mar 2012, 14:14

Ouais_supère a écrit:Étant abonné à Autosport, je peux faire passer les temps au tour à quelqu'un qui saura les poster correctement, peut-être?
Ouais_supère
 
Messages: 20919
Inscription: 20 Juil 2005, 10:54

Re: Chronos : GP d'Australie 2012

Messagede sheon le 19 Mar 2012, 19:24

Tu les as sous quel format ?
Donnez une Ferrari à Leclerc et on n'en parle plus.
Avatar de l'utilisateur
sheon
Léon Raoul
 
Messages: 18891
Inscription: 03 Juin 2010, 15:55
Localisation: Dans les nuages.

Re: Chronos : GP d'Australie 2012

Messagede Son le 19 Mar 2012, 19:25

Ouais_supère a écrit:
Ouais_supère a écrit:Étant abonné à Autosport, je peux faire passer les temps au tour à quelqu'un qui saura les poster correctement, peut-être?


bis repetitas :)
Avatar de l'utilisateur
Son
je sais pas le faire
je sais pas le faire
 
Messages: 13260
Inscription: 22 Fév 2003, 20:32

Re: Chronos : GP d'Australie 2012

Messagede Ouais_supère le 19 Mar 2012, 19:46

sheon a écrit:Tu les as sous quel format ?


Un tableau OpenOffice.

Je pense qu'il y a moyen d'en déduire les graphiques habituels.
Ouais_supère
 
Messages: 20919
Inscription: 20 Juil 2005, 10:54

Re: Chronos : GP d'Australie 2012

Messagede Garion le 20 Mar 2012, 07:52

Je veux bien les récupérer, je pourrais les introduire dans mon soft qui fait les graphiques.
Image
Image
Avatar de l'utilisateur
Garion
Prisonnier
 
Messages: 15425
Inscription: 19 Fév 2003, 09:15
Localisation: Le village

Re: Chronos : GP d'Australie 2012

Messagede Ouais_supère le 20 Mar 2012, 15:21

Garion a écrit:Je veux bien les récupérer, je pourrais les introduire dans mon soft qui fait les graphiques.



Je te les envoie dans la journée/soirée (normalement...).
Ouais_supère
 
Messages: 20919
Inscription: 20 Juil 2005, 10:54

Re: Chronos : GP d'Australie 2012

Messagede sheon le 24 Mar 2012, 09:22

Alors, Garion ? :P
Donnez une Ferrari à Leclerc et on n'en parle plus.
Avatar de l'utilisateur
sheon
Léon Raoul
 
Messages: 18891
Inscription: 03 Juin 2010, 15:55
Localisation: Dans les nuages.

Re: Chronos : GP d'Australie 2012

Messagede Ouais_supère le 24 Mar 2012, 11:22

Non mais c'est moi, j'ai encore fait nawak.

Je sais même plus où héberger un fichier pour lui envoyer...
Ouais_supère
 
Messages: 20919
Inscription: 20 Juil 2005, 10:54

Re: Chronos : GP d'Australie 2012

Messagede sheon le 24 Mar 2012, 12:45

Tu peux utiliser http://www.zippyshare.com/, par exemple.
Donnez une Ferrari à Leclerc et on n'en parle plus.
Avatar de l'utilisateur
sheon
Léon Raoul
 
Messages: 18891
Inscription: 03 Juin 2010, 15:55
Localisation: Dans les nuages.

Re: Chronos : GP d'Australie 2012

Messagede Ouais_supère le 24 Mar 2012, 12:55

Merci bien, sheon.
Ouais_supère
 
Messages: 20919
Inscription: 20 Juil 2005, 10:54

Re: Chronos : GP d'Australie 2012

Messagede Garion le 24 Mar 2012, 20:38

Bon sinon, y'a megaupload :D
:jesors:
Image
Image
Avatar de l'utilisateur
Garion
Prisonnier
 
Messages: 15425
Inscription: 19 Fév 2003, 09:15
Localisation: Le village

Re: Chronos : GP d'Australie 2012

Messagede Garion le 25 Mar 2012, 12:23

Bon, merci pour les temps, j'ai pu faire les graphiques

2012_01_Australie

Temps au tour
Code: Tout sélectionner
0  S. VETTE M. WEBBE J. BUTTO L. HAMIL F. ALONS
1  1:43.029 1:45.336 1:39.264 1:40.622 1:44.733
2  1:35.160 1:35.939 1:33.414 1:34.297 1:35.866
3  1:33.848 1:34.896 1:33.350 1:33.566 1:34.081
4  1:34.148 1:34.585 1:33.131 1:33.347 1:34.186
5  1:34.174 1:33.879 1:32.984 1:33.446 1:34.220
6  1:36.499 1:34.765 1:33.117 1:33.380 1:35.651
7  1:33.690 1:34.451 1:33.244 1:33.315 1:34.207
8  1:33.632 1:34.391 1:33.124 1:33.461 1:34.465
9  1:33.500 1:34.224 1:33.394 1:33.561 1:33.893
10 1:34.853 1:33.875 1:33.767 1:33.471 1:33.897
11 1:33.605 1:35.053 1:33.985 1:33.617 1:35.440
12 1:33.308 1:34.602 1:33.628 1:33.732 1:34.535
13 1:33.582 1:34.539 1:33.970 1:33.881 1:50.958
14 1:33.685 1:53.152 1:34.164 1:34.255 1:39.472
15 1:33.750 1:40.168 1:34.645 1:34.730 1:33.093
16 1:54.857 1:32.355 1:54.021 1:36.403 1:32.867
17 1:39.517 1:32.262 1:39.358 1:55.417 1:33.978
18 1:33.273 1:32.644 1:33.348 1:40.734 1:34.326
19 1:32.764 1:35.138 1:33.300 1:33.813 1:33.586
20 1:32.945 1:32.943 1:32.880 1:34.233 1:33.147
21 1:34.467 1:33.160 1:32.903 1:33.156 1:33.535
22 1:32.588 1:34.173 1:33.141 1:33.111 1:34.916
23 1:33.174 1:34.423 1:32.840 1:33.285 1:33.169
24 1:32.182 1:32.546 1:32.701 1:31.740 1:32.670
25 1:32.028 1:32.978 1:32.760 1:32.068 1:32.662
26 1:32.056 1:32.935 1:32.152 1:31.593 1:32.895
27 1:32.162 1:33.219 1:31.943 1:31.814 1:33.152
28 1:31.741 1:33.219 1:31.788 1:31.834 1:32.680
29 1:32.107 1:33.827 1:31.813 1:31.743 1:32.535
30 1:31.621 1:33.981 1:31.812 1:31.731 1:32.506
31 1:31.794 1:34.912 1:31.565 1:31.820 1:33.130
32 1:32.059 1:31.098 1:31.597 1:32.362 1:32.817
33 1:31.947 1:31.341 1:31.632 1:32.000 1:32.683
34 1:31.843 1:31.288 1:31.989 1:32.082 1:51.326
35 1:31.865 1:31.156 1:32.215 1:32.209 1:38.399
36 1:31.874 1:31.685 1:51.349 1:51.396 1:31.855
37 2:00.851 2:05.400 1:51.615 1:54.656 1:52.525
38 2:43.068 2:25.212 2:44.349 2:32.354 2:18.746
39 2:23.569 2:23.010 2:23.729 2:23.484 2:21.499
40 2:40.235 2:40.269 2:39.748 2:40.660 2:40.468
41 2:21.015 2:19.821 2:21.646 2:20.014 2:18.652
42 1:33.226 1:33.812 1:31.355 1:33.630 1:34.114
43 1:31.477 1:31.557 1:30.567 1:31.502 1:32.071
44 1:30.585 1:30.724 1:30.232 1:30.535 1:30.978
45 1:30.221 1:30.253 1:30.220 1:30.378 1:31.438
46 1:30.033 1:30.175 1:30.014 1:29.865 1:30.332
47 1:29.899 1:29.999 1:29.828 1:30.108 1:30.632
48 1:30.160 1:30.167 1:30.702 1:30.081 1:30.860
49 1:30.287 1:30.446 1:30.081 1:30.179 1:31.317
50 1:30.033 1:29.810 1:29.858 1:30.019 1:31.140
51 1:29.888 1:29.905 1:30.049 1:30.052 1:30.506
52 1:29.690 1:29.714 1:30.047 1:29.927 1:30.277
53 1:29.869 1:29.921 1:30.124 1:30.188 1:30.593
54 1:29.587 1:30.260 1:29.697 1:30.041 1:30.675
55 1:29.995 1:29.680 1:29.645 1:29.696 1:30.894
56 1:29.590 1:29.779 1:29.187 1:29.641 1:31.025
57 1:29.417 1:29.438 1:29.738 1:29.538 1:31.019
58 1:29.682 1:29.622 1:30.846 1:29.867 1:33.838
59                                             

0 F. MASSA M. SCHUM N. ROSBE K. RAIKK R. GROSJ
1 1:46.714 1:42.002 1:42.666 1:48.460 1:43.730
2 1:36.908 1:35.127 1:36.234 1:36.631         
3 1:35.111 1:34.402 1:34.825 1:35.743         
4 1:35.243 1:34.021 1:34.497 1:36.903         
5 1:35.208 1:34.359 1:34.330 1:34.882         
6 1:34.631 1:34.347 1:35.829 1:34.578         
7 1:34.628 1:34.246 1:34.218 1:34.726         
8 1:35.261 1:34.430 1:33.980 1:34.196         
9 1:36.496 1:34.215 1:34.014 1:35.173         
10 1:36.091 1:35.021 1:33.981 1:36.320         
11 1:53.934          1:35.604 1:35.766         
12 1:39.595          1:53.413 1:34.626         
13 1:33.308          1:40.088 1:35.793         
14 1:33.710          1:33.330 1:33.066         
15 1:34.633          1:33.454 1:33.453         
16 1:33.884          1:32.931 1:33.816         
17 1:34.390          1:33.139 1:34.075         
18 1:34.184          1:33.873 1:34.171         
19 1:33.969          1:35.220 1:55.052         
20 1:33.920          1:32.954 1:39.146         
21 1:33.742          1:33.064 1:32.562         
22 1:33.999          1:33.941 1:32.589         
23 1:33.571          1:34.361 1:32.757         
24 1:33.669          1:33.151 1:33.137         
25 1:34.958          1:32.811 1:34.496         
26 1:33.980          1:32.850 1:33.780         
27 1:35.902          1:33.462 1:32.200         
28 1:55.749          1:33.237 1:32.399         
29 1:39.404          1:33.858 1:32.100         
30 1:32.696          1:34.067 1:32.120         
31 1:32.543          1:53.519 1:32.352         
32 1:32.810          1:40.686 1:32.348         
33 1:32.840          1:31.466 1:31.853         
34 1:34.975          1:31.734 1:31.721         
35 1:33.147          1:31.924 1:31.929         
36 1:34.820          1:31.190 1:31.553         
37 2:16.302          1:54.355 2:09.819         
38 1:47.405          2:13.473 2:17.935         
39 2:06.547          2:20.768 2:19.939         
40 2:38.242          2:40.873 2:40.620         
41 2:13.723          2:17.246 2:16.285         
42 1:36.965          1:34.799 1:35.599         
43 1:32.591          1:32.260 1:33.107         
44 1:32.059          1:31.734 1:31.670         
45 1:32.394          1:31.095 1:31.299         
46 1:31.940          1:31.241 1:30.966         
47                   1:30.937 1:31.961         
48                   1:31.722 1:31.750         
49                   1:31.726 1:32.046         
50                   1:31.336 1:30.759         
51                   1:31.470 1:30.900         
52                   1:33.199 1:31.784         
53                   1:30.931 1:32.605         
54                   1:31.430 1:31.749         
55                   1:31.007 1:31.065         
56                   1:31.380 1:30.823         
57                   1:32.508 1:32.403         
58                   1:57.816 1:36.023         
59                                             
0 B. SENNA P. MALDO N. HULKE P. DI RE K. KOBAY
1 1:50.849 1:46.880 1:47.256 2:37.333 1:52.099
2 1:36.182 1:37.177 1:37.300 1:44.100 1:37.919
3 1:35.767 1:35.312 1:35.783 1:35.145 1:35.159
4 1:35.422 1:37.945 1:35.517 1:34.200 1:34.567
5 1:35.600 1:34.491 1:34.760 1:34.304 1:35.085
6 1:34.958 1:34.858 1:35.046 1:34.056 1:34.667
7 1:34.821 1:34.529 1:34.293 1:34.042 1:35.057
8 1:34.755 1:34.347 1:35.159 1:34.747 1:35.050
9 1:34.613 1:35.434 1:35.288 1:34.054 1:34.660
10 1:35.315 1:36.097 1:36.119 1:34.037 1:35.247
11 1:36.687 1:35.735 1:37.623 1:33.823 1:35.927
12 1:35.318 1:34.854 1:34.673 1:33.967 1:35.765
13 1:55.738 1:57.167 1:35.260 1:34.020 1:35.048
14 1:39.845 1:39.289 1:34.109 1:34.115 1:34.451
15 1:33.566 1:32.895 1:33.973 1:35.190 1:34.540
16 1:33.436 1:32.776 1:33.678 1:37.221 1:33.985
17 1:33.763 1:34.564 1:33.621 1:36.653 1:34.294
18 1:33.751 1:33.125 1:35.028 1:34.590 1:36.191
19 1:33.503 1:33.211 1:34.214 1:34.772 1:57.339
20 1:34.104 1:33.105 1:34.423 1:34.966 1:38.992
21 1:33.355 1:33.221 1:36.559 1:35.367 1:32.475
22 1:33.358 1:33.307 1:35.293 1:55.031 1:32.353
23 1:33.007 1:33.378 1:37.174 1:42.451 1:31.978
24 1:33.010 1:33.318 1:56.511 1:32.939 1:31.947
25 1:33.604 1:35.876 1:40.236 1:32.958 1:31.760
26 1:33.536 1:33.546 1:32.176 1:32.776 1:32.007
27 1:34.078 1:33.958 1:31.829 1:32.449 1:33.968
28 1:35.794 1:33.345 1:32.513 1:32.197 1:35.632
29 1:33.123 1:32.819 1:31.788 1:31.797 1:33.314
30 1:32.810 1:32.659 1:31.743 1:31.598 1:32.672
31 1:32.978 1:32.688 1:31.526 1:38.002 1:44.134
32 1:32.674 1:32.610 1:31.763 1:32.929 1:31.882
33 1:53.392 1:32.535 1:31.584 1:32.312 1:31.924
34 1:38.771 1:32.871 1:31.380 1:32.165 1:31.697
35 1:31.916 1:32.989 1:31.335 1:31.789 1:31.775
36 1:32.298 1:53.618 1:31.671 1:42.248 1:32.369
37 1:57.698 2:00.780 1:53.182 1:57.281 2:15.848
38 1:56.308 2:01.021 2:19.152 1:57.707 2:00.898
39 2:16.243 2:16.870 2:21.342 1:47.177 2:12.696
40 2:41.174 2:40.728 2:39.990 2:35.887 2:40.916
41 2:14.698 2:15.323 2:18.390 2:11.166 2:13.946
42 1:35.773 1:34.707 1:34.546 1:36.826 1:35.809
43 1:32.963 1:32.370 1:32.208 1:32.579 1:32.925
44 1:32.400 1:31.982 1:31.386 1:31.840 1:32.245
45 1:31.834 1:31.321 1:31.121 1:32.274 1:31.986
46 1:32.042 1:31.196 1:30.843 1:31.899 1:31.873
47 1:31.986 1:31.283 1:31.155 1:33.183 1:32.324
48 1:32.197 1:31.668 1:31.985 1:31.029 1:32.216
49 1:31.855 1:31.767 1:31.798 1:30.669 1:31.453
50 1:34.145 1:31.235 1:31.583 1:31.389 1:31.519
51 1:31.391 1:31.086 1:31.696 1:30.636 1:30.341
52 1:31.378 1:32.677 1:31.459 1:30.630 1:30.274
53 1:31.233 1:32.316 1:31.475 1:30.592 1:30.751
54 1:31.491 1:31.699 1:31.621 1:31.483 1:32.025
55 1:30.891 1:30.620 1:31.559 1:31.547 1:31.541
56 1:30.747 1:31.190 1:31.812 1:30.824 1:30.940
57 1:30.605 1:32.628 1:32.353 1:31.584 1:31.909
58 1:34.553 1:35.335 1:40.163 1:36.576 1:37.049
59                                             
0 S. PEREZ D. RICCI J. VERGN H. KOVAL V. PETRO
1 1:44.212 2:16.893 1:53.018 1:55.829 1:50.819
2 1:36.857 1:42.348 1:37.690 1:37.612 1:38.975
3 1:34.569 1:36.241 1:38.084 1:36.479 1:38.691
4 1:34.068 1:36.368 1:37.656 1:37.006 1:37.576
5 1:40.441 1:35.740 1:37.540 1:37.796 1:37.679
6 1:34.096 1:35.524 1:37.799 1:37.483 1:37.845
7 1:34.874 1:35.434 1:35.634 1:36.031 1:39.003
8 1:34.983 1:35.925 1:35.239 1:35.532 1:37.121
9 1:34.510 1:35.029 1:35.140 1:35.263 1:36.844
10 1:33.682 1:35.465 1:35.702 1:35.670 1:36.951
11 1:33.552 1:35.358 1:35.270 1:35.152 1:37.036
12 1:33.816 1:34.879 1:35.882 1:35.051 1:36.903
13 1:34.110 1:35.783 1:35.464 1:35.990 1:36.973
14 1:33.944 1:35.339 1:55.735 1:35.194 1:36.933
15 1:34.286 1:34.096 1:42.491 1:34.190 1:36.683
16 1:53.932 1:34.194 1:35.637 1:34.317 1:36.914
17 1:39.383 1:35.148 1:34.884 1:34.951 1:36.654
18 1:32.358 1:34.847 1:34.357 1:57.001 1:37.755
19 1:32.720 1:35.269 1:35.198 1:40.653 1:37.596
20 1:32.617 1:34.588 1:34.697 1:35.131 1:59.967
21 1:32.630 1:34.601 1:34.669 1:33.740 1:45.105
22 1:33.049 1:34.642 1:34.899 1:35.282 1:35.673
23 1:33.843 1:34.304 1:34.157 1:33.844 1:35.601
24 1:35.904 1:34.513 1:33.768 1:33.947 1:37.930
25 1:32.359 1:35.132 1:33.949 1:33.771 1:35.446
26 1:32.140 1:34.193 1:33.693 1:33.400 1:39.366
27 1:32.310 1:34.288 1:33.842 1:33.214 1:36.681
28 1:32.547 1:34.234 1:34.201 1:33.709 1:34.642
29 1:32.517 1:33.883 1:34.022 1:34.774 1:35.398
30 1:33.690 1:54.934 1:34.002 1:33.778 1:35.566
31 1:35.032 1:41.386 1:34.923 1:33.254 1:37.256
32 1:32.070 1:34.457 1:34.161 1:33.780 1:37.121
33 1:31.905 1:32.100 1:34.972 1:36.150 1:37.734
34 1:32.112 1:31.872 1:56.776 1:33.939 1:36.016
35 1:31.909 1:31.807 1:41.693          1:36.853
36 1:32.213 1:41.630 1:49.691          2:19.057
37 2:06.980 1:57.340 2:53.810          2:03.479
38 2:23.593 1:37.438 2:18.332          2:06.206
39 2:21.435 2:05.271                   2:07.162
40 2:39.962 2:37.642                   1:37.755
41 2:18.699 2:13.187                   1:36.251
42 1:34.111 1:37.401                   1:35.053
43 1:32.246 1:33.142                   1:34.253
44 1:31.065 1:31.841                   1:34.516
45 1:31.594 1:31.866                   1:34.456
46 1:30.444 1:32.021                   1:34.259
47 1:30.375 2:51.417                   1:37.537
48 1:30.619 1:40.476                   1:34.943
49 1:31.460 1:30.855                   1:34.497
50 1:31.243 1:31.999                   1:34.407
51 1:30.641 1:33.469                   1:34.723
52 1:30.316 1:31.119                   1:34.784
53 1:30.254                            1:34.451
54 1:30.873                            1:39.855
55 1:30.921                            1:37.174
56 1:30.713                            1:39.441
57 1:31.075                            1:49.259
58                                             
59                                             

Ecarts par rapport au 1er
Code: Tout sélectionner
0  S. VETTE M. WEBBE J. BUTTO L. HAMIL F. ALONS
1     3.765    6.072        0    1.358    5.469
2     5.511    8.597        0    2.241    7.921
3     6.009   10.143        0    2.457    8.652
4     7.026   11.597        0    2.673    9.707
5     8.216   12.492        0    3.135   10.943
6    11.598    14.14        0    3.398   13.477
7    12.044   15.347        0    3.469    14.44
8    12.552   16.614        0    3.806   15.781
9    12.658   17.444        0    3.973    16.28
10   13.744   17.552        0    3.677    16.41
11   13.364    18.62        0    3.309   17.865
12   13.044   19.594        0    3.413   18.772
13   12.656   20.163        0    3.324    35.76
14   12.177   39.151        0    3.415   41.068
15   11.282   44.674        0      3.5   39.516
16   26.236   37.126   14.118        0    32.48
17   12.277   15.912        0    1.941   12.982
18   12.202   15.208        0    9.327    13.96
19   11.666   17.046        0     9.84   14.246
20   11.731   17.109        0   11.193   14.513
21   13.295   17.366        0   11.446   15.145
22   12.742   18.398        0   11.416    16.92
23   13.076   19.981        0   11.861   17.249
24   12.557   19.826        0     10.9   17.218
25   11.825   20.044        0   10.208    17.12
26   11.729   20.827        0    9.649   17.863
27   11.948   22.103        0     9.52   19.072
28   11.901   23.534        0    9.566   19.964
29   12.195   25.548        0    9.496   20.686
30   12.004   27.717        0    9.415    21.38
31   12.233   31.064        0     9.67   22.945
32   12.695   30.565        0   10.435   24.165
33    13.01   30.274        0   10.803   25.216
34   12.864   29.573        0   10.896   44.553
35   12.514   28.514        0    10.89   50.737
36        0   15.811    6.961   17.898   38.204
37    2.275   22.635        0   13.978   32.153
38    0.994    3.498        0    1.983     6.55
39    0.834    2.779        0    1.738     4.32
40    1.321      3.3        0     2.65     5.04
41     0.69    1.475        0    1.018    2.046
42    2.561    3.932        0    3.293    4.805
43    3.471    4.922        0    4.228    6.309
44    3.824    5.414        0    4.531    7.055
45    3.825    5.447        0    4.689    8.273
46    3.844    5.608        0     4.54    8.591
47    3.915    5.779        0     4.82    9.395
48    3.373    5.244        0    4.199    9.553
49    3.579    5.609        0    4.297   10.789
50    3.754    5.561        0    4.458   12.071
51    3.593    5.417        0    4.461   12.528
52    3.236    5.084        0    4.341   12.758
53    2.981    4.881        0    4.405   13.227
54    2.871    5.444        0    4.749   14.205
55    3.221    5.479        0      4.8   15.454
56    3.624    6.071        0    5.254   17.292
57    3.303    5.771        0    5.054   18.573
58    2.139    4.547        0    4.075   21.565
59                                             

0 F. MASSA M. SCHUM N. ROSBE K. RAIKK R. GROSJ
1     7.45    2.738    3.402    9.196    4.466
2   10.944    4.451    6.222   12.413         
3   12.705    5.503    7.697   14.806         
4   14.817    6.393    9.063   18.578         
5   17.041    7.768   10.409   20.476         
6   18.555    8.998   13.121   21.937         
7   19.939       10   14.095   23.419         
8   22.076   11.306   14.951   24.491         
9   25.178   12.127   15.571    26.27         
10   27.502   13.381   15.785   28.823         
11   47.451            17.404   30.604         
12   53.418            37.189   31.602         
13   52.756            43.307   33.425         
14   52.302            42.473   32.327         
15    52.29            41.282   31.135         
16   46.271             34.31   25.048         
17   27.185            13.973    5.647         
18   28.021            14.498     6.47         
19    28.69            16.418   28.222         
20    29.73            16.492   34.488         
21   30.569            16.653   34.147         
22   31.427            17.453   33.595         
23   32.158            18.974   33.512         
24   33.126            19.424   33.948         
25   35.324            19.475   35.684         
26   37.152            20.173   37.312         
27   41.111            21.692   37.569         
28   65.072            23.141    38.18         
29   72.663            25.186   38.467         
30   73.547            27.441   38.775         
31   74.525            49.395   39.562         
32   75.738            58.484   40.313         
33   76.946            58.318   40.534         
34   79.932            58.063   40.266         
35   80.864            57.772    39.98         
36   71.296            44.574   27.145         
37   89.022            40.353   38.388         
38   32.078             9.477   11.974         
39   14.896             6.516    8.184         
40    13.39             7.641    9.056         
41    5.467             3.241    3.695         
42   11.077             6.685    7.939         
43   13.101             8.378   10.479         
44   14.928              9.88   11.917         
45   17.102            10.755   12.996         
46   19.028            11.982   13.948         
47                     13.091   16.081         
48                     14.111   17.129         
49                     15.756   19.094         
50                     17.234   19.995         
51                     18.655   20.846         
52                     21.807   22.583         
53                     22.614   25.064         
54                     24.347   27.116         
55                     25.709   28.536         
56                     27.902   30.172         
57                     30.672   32.837         
58                     57.642   38.014         
59                                             
0 B. SENNA P. MALDO N. HULKE P. DI RE K. KOBAY
1   11.585    7.616    7.992   58.069   12.835
2   14.353   11.379   11.878   68.755    17.34
3    16.77   13.341   14.311    70.55   19.149
4   19.061   18.155   16.697   71.619   20.585
5   21.677   19.662   18.473   72.939   22.686
6   23.518   21.403   20.402   73.878   24.236
7   25.095   22.688   21.451   74.676   26.049
8   26.726   23.911   23.486   76.299   27.975
9   27.945   25.951    25.38   76.959   29.241
10   29.493   28.281   27.732   77.229   30.721
11   32.195   30.031    31.37   77.067   32.663
12   33.885   31.257   32.415   77.406     34.8
13   55.653   54.454   33.705   77.456   35.878
14   61.334   59.579    33.65   77.407   36.165
15   60.255   57.829   32.978   77.952    36.06
16   53.788   50.702   26.753    75.27   30.142
17   34.075    31.79    6.898   58.447    10.96
18   34.478   31.567    8.578   59.689   13.803
19   34.681   31.478    9.492   61.161   37.842
20   35.905   31.703   11.035   63.247   43.954
21   36.357   32.021   14.691   65.711   43.526
22   36.574   32.187   16.843   87.601   42.738
23   36.741   32.725   21.177   97.212   41.876
24    37.05   33.342   44.987    97.45   41.122
25   37.894   36.458   52.463   97.648   40.122
26   39.278   37.852   52.487   98.272   39.977
27   41.413   39.867   52.373   98.778   42.002
28   45.419   41.424   53.098   99.187   45.846
29   46.729    42.43   53.073   99.171   47.347
30   47.727   43.277   53.004   98.957   48.207
31    49.14     44.4   52.965            60.776
32   50.217   45.413   53.131            61.061
33   71.977   46.316   53.083            61.353
34   78.759   47.198   52.474            61.061
35    78.46   47.972   51.594            60.621
36    66.37   57.202   38.877            48.602
37   65.492   59.406   33.483            65.874
38   17.451   16.078    8.286   57.079   22.423
39    9.965    9.219    5.899   20.527    11.39
40   11.391   10.199    6.141   16.666   12.558
41    4.443    3.876    2.885    6.186    4.858
42    8.861    7.228    6.076   11.657    9.312
43   11.257    9.031    7.717   13.669    11.67
44   13.425   10.781    8.871   15.277   13.683
45   15.039   11.882    9.772   17.331   15.449
46   17.067   13.064   10.601   19.216   17.308
47   19.225   14.519   11.928   22.571   19.804
48    20.72   15.485   13.211   22.898   21.318
49   22.494   17.171   14.928   23.486    22.69
50   26.781   18.548   16.653   25.017   24.351
51   28.123   19.585     18.3   25.604   24.643
52   29.454   22.215   19.712   26.187    24.87
53   30.563   24.407   21.063   26.655   25.497
54   32.357   26.409   22.987   28.441   27.825
55   33.603   27.384   24.901   30.343   29.721
56   35.163   29.387   27.526    31.98   31.474
57    36.03   32.277   30.141   33.826   33.645
58   39.737   36.766   39.458   39.556   39.848
59                                             
0 S. PEREZ D. RICCI J. VERGN H. KOVAL V. PETRO
1    4.948   37.629   13.754   16.565   11.555
2    8.391   46.563    18.03   20.763   17.116
3     9.61   49.454   22.764   23.892   22.457
4   10.547   52.691   27.289   27.767   26.902
5   18.004   55.447   31.845   32.579   31.597
6   18.983   57.854   36.527   36.945   36.325
7   20.613   60.044   38.917   39.732   42.084
8   22.472   62.845   41.032    42.14   46.081
9   23.588    64.48   42.778   44.009   49.531
10   23.503   66.178   44.713   45.912   52.715
11    23.07   67.551   45.998   47.079   55.766
12   23.258   68.802   48.252   48.502   59.041
13   23.398   70.615   49.746   50.522   62.044
14   23.178    71.79   71.317   51.552   64.813
15   22.819   71.241   79.163   51.097   66.851
16   36.848   65.532   74.897   45.511   63.862
17   22.755   47.204   56.305   26.986    47.04
18   21.765   48.703   57.314   50.639   51.447
19   21.185   50.672   59.212   57.992   55.743
20   20.922    52.38   61.029   60.243    82.83
21   20.649   54.078   62.795    61.08   95.032
22   20.557   55.579   64.553   63.221   97.564
23    21.56   57.043    65.87   64.225         
24   24.763   58.855   66.937   65.471         
25   24.362   61.227   68.126   66.482         
26    24.35   63.268   69.667    67.73         
27   24.717   65.613   71.566   69.001         
28   25.476   68.059   73.979   70.922         
29    26.18   70.129   76.188   73.883         
30   28.058   93.251   78.378   75.849         
31   31.525            81.736   77.538         
32   31.998              84.3   79.721         
33   32.271             87.64   84.239         
34   32.394                     86.189         
35   32.088                                     
36   19.913                                     
37   28.317                                     
38    7.561    34.97                           
39    5.267   16.512                           
40    5.481   14.406                     79.236
41    2.534    5.947                     33.841
42     5.29   11.993                     37.539
43    6.969   14.568                     41.225
44    7.802   16.177                     45.509
45    9.176   17.823                     49.745
46    9.606    19.83                      53.99
47   10.153                              61.699
48    10.07                               65.94
49   11.449                              70.356
50   12.834                              74.905
51   13.426                              79.579
52   13.695                              84.316
53   13.825                              88.643
54   15.001                              98.801
55   16.277                                     
56   17.803                                     
57    19.14                                     
58                                             
59                                             

Vitesses Max
Code: Tout sélectionner
    Pilote Secteur 1    Pilote Secteur 2    Pilote Secteur 3    Pilote Secteur 4
                                                                               
                                                                               
                                                                               
                                                                               
                                                                               
                                                                               

Meilleurs secteurs
Code: Tout sélectionner
Pilote     Secteur 1  Secteur 2  Secteur 3 
S. VETTEL        -1.0       -1.0       -1.0
M. WEBBER        -1.0       -1.0       -1.0
J. BUTTON        -1.0       -1.0       -1.0
L. HAMILTO       -1.0       -1.0       -1.0
F. ALONSO        -1.0       -1.0       -1.0
F. MASSA         -1.0       -1.0       -1.0
M. SCHUMAC       -1.0       -1.0       -1.0
N. ROSBERG       -1.0       -1.0       -1.0
K. RAIKKON       -1.0       -1.0       -1.0
R. GROSJEA       -1.0       -1.0       -1.0
B. SENNA         -1.0       -1.0       -1.0
P. MALDONA       -1.0       -1.0       -1.0
N. HULKENB       -1.0       -1.0       -1.0
P. DI REST       -1.0       -1.0       -1.0
K. KOBAYAS       -1.0       -1.0       -1.0
S. PEREZ         -1.0       -1.0       -1.0
D. RICCIAR       -1.0       -1.0       -1.0
J. VERGNE        -1.0       -1.0       -1.0
H. KOVALAI       -1.0       -1.0       -1.0
V. PETROV        -1.0       -1.0       -1.0
P. DE LA R       -1.0       -1.0       -1.0
N. KARTHIK       -1.0       -1.0       -1.0
T. GLOCK         -1.0       -1.0       -1.0

Image
Image
Image
Image
Image
Image
Image
Image
Image
Image
Image
Image
Image
Image
Image
Image
Avatar de l'utilisateur
Garion
Prisonnier
 
Messages: 15425
Inscription: 19 Fév 2003, 09:15
Localisation: Le village

Re: Chronos : GP d'Australie 2012

Messagede AllegroTurbo le 25 Mar 2012, 23:31

Merci pour le boulot Garion! :good
"Il est aussi atroce qu'absurde, de voir les uns regorger de superflu, et les autres manquer du nécessaire." (D'Alembert)
Avatar de l'utilisateur
AllegroTurbo
Champcar For Ever
 
Messages: 1614
Inscription: 24 Avr 2006, 14:02


Retourner vers Forum statistiques

Qui est en ligne

Utilisateurs parcourant ce forum: Aucun utilisateur enregistré et 2 invités